Time;durP1;ratioP1;P1;durP2;ratioP2;P2;SDS_P1;SDS_P2;PMS_P1;PMS_P2;Temp;Humidity;BMP_temperature;BMP_pressure;BME280_temperature;BME280_humidity;BME280_pressure;Samples;Min_cycle;Max_cycle;Signal;HPM_P1;HPM_P2
2022/07/13 00:02:25;;;;;;;2.92;2.63;;;19.50;99.90;;;;;;5026734;28;20032;-75
2022/07/13 00:04:51;;;;;;;3.08;2.38;;;19.50;99.90;;;;;;5029469;28;20104;-75
2022/07/13 00:07:17;;;;;;;4.47;2.40;;;19.50;99.90;;;;;;5032028;28;20025;-75
2022/07/13 00:09:43;;;;;;;3.10;2.40;;;19.40;99.90;;;;;;5032144;28;20029;-75
2022/07/13 00:12:08;;;;;;;2.17;1.98;;;19.40;99.90;;;;;;5032682;28;20374;-75
2022/07/13 00:14:34;;;;;;;2.83;1.70;;;19.40;99.90;;;;;;5047130;23;20038;-85
2022/07/13 00:17:00;;;;;;;4.88;2.00;;;19.40;99.90;;;;;;5032592;28;20470;-85
2022/07/13 00:19:26;;;;;;;1.75;1.60;;;19.40;99.90;;;;;;5032581;28;20035;-85
2022/07/13 00:21:55;;;;;;;3.55;1.60;;;19.30;99.90;;;;;;5034143;28;20371;-84
2022/07/13 00:24:21;;;;;;;2.75;1.83;;;19.30;99.90;;;;;;5031925;28;20040;-84
2022/07/13 00:26:47;;;;;;;1.50;1.40;;;19.40;99.90;;;;;;5006201;28;20426;-84
2022/07/13 00:29:13;;;;;;;1.92;1.73;;;19.40;99.90;;;;;;5013380;28;20469;-84
2022/07/13 00:31:39;;;;;;;3.70;1.95;;;19.30;99.90;;;;;;5013670;28;20061;-85
2022/07/13 00:34:04;;;;;;;1.58;1.30;;;19.30;99.90;;;;;;5013580;28;20411;-85
2022/07/13 00:36:30;;;;;;;2.75;2.10;;;19.20;99.90;;;;;;5013761;28;20433;-84
2022/07/13 00:38:56;;;;;;;2.58;1.50;;;19.10;99.90;;;;;;5013750;28;20041;-84
2022/07/13 00:41:22;;;;;;;4.90;1.77;;;19.10;99.90;;;;;;5008161;28;20046;-85
2022/07/13 00:43:48;;;;;;;1.70;1.58;;;19.00;99.90;;;;;;5011946;28;20091;-85
2022/07/13 00:46:14;;;;;;;2.28;1.63;;;19.00;99.90;;;;;;5012442;28;20014;-86
2022/07/13 00:48:41;;;;;;;6.40;2.05;;;19.00;99.90;;;;;;5013244;28;20026;-84
2022/07/13 00:51:07;;;;;;;1.70;1.60;;;19.00;99.90;;;;;;5013533;28;20026;-85
2022/07/13 00:53:37;;;;;;;1.90;1.80;;;19.00;99.90;;;;;;5013455;28;20080;-85
2022/07/13 00:56:04;;;;;;;2.38;1.40;;;19.00;99.90;;;;;;5013416;28;20018;-85
2022/07/13 00:58:31;;;;;;;1.50;1.40;;;19.00;99.90;;;;;;5013216;28;20061;-84
2022/07/13 01:00:57;;;;;;;2.35;1.67;;;19.00;99.90;;;;;;5012861;28;20022;-84
2022/07/13 01:03:22;;;;;;;3.42;1.90;;;18.90;99.90;;;;;;5011787;28;20022;-85
2022/07/13 01:05:50;;;;;;;3.15;1.75;;;18.90;99.90;;;;;;5013137;28;20072;-85
2022/07/13 01:08:19;;;;;;;2.13;1.92;;;18.90;99.90;;;;;;5013317;28;20478;-85
2022/07/13 01:10:45;;;;;;;4.97;2.08;;;18.80;99.90;;;;;;5013106;28;20022;-85
2022/07/13 01:13:12;;;;;;;1.95;1.55;;;18.80;99.90;;;;;;5012991;28;20022;-85
2022/07/13 01:15:39;;;;;;;1.98;1.60;;;18.80;99.90;;;;;;5030457;23;20095;-75
2022/07/13 01:18:04;;;;;;;3.00;1.50;;;18.80;99.90;;;;;;5012768;28;20033;-75
2022/07/13 01:20:31;;;;;;;4.32;2.00;;;18.80;99.90;;;;;;5013068;28;20026;-75
2022/07/13 01:23:02;;;;;;;1.55;1.40;;;18.80;99.90;;;;;;5013014;28;20021;-75
2022/07/13 01:25:28;;;;;;;2.95;1.48;;;18.80;99.90;;;;;;5012233;28;20375;-75
2022/07/13 01:27:54;;;;;;;3.30;2.20;;;18.80;99.90;;;;;;5012296;28;20030;-75
2022/07/13 01:30:19;;;;;;;2.17;1.98;;;18.80;99.90;;;;;;5010375;28;20476;-75
2022/07/13 01:32:49;;;;;;;2.30;1.60;;;18.80;99.90;;;;;;5011697;28;20018;-75
2022/07/13 01:35:16;;;;;;;2.67;1.50;;;18.80;99.90;;;;;;5011330;28;20035;-75
2022/07/13 01:37:44;;;;;;;1.98;1.63;;;18.80;99.90;;;;;;4997974;28;20088;-75
2022/07/13 01:40:10;;;;;;;2.95;1.38;;;18.80;99.90;;;;;;5011029;28;20429;-75
2022/07/13 01:42:47;;;;;;;1.67;1.40;;;18.80;99.90;;;;;;5011008;28;20018;-75
2022/07/13 01:45:15;;;;;;;2.67;2.30;;;18.80;99.90;;;;;;5009943;28;20050;-75
2022/07/13 01:47:43;;;;;;;1.60;1.50;;;18.80;99.90;;;;;;5010091;28;20115;-75
2022/07/13 01:50:10;;;;;;;1.60;1.48;;;18.80;99.90;;;;;;5011167;28;20045;-75
2022/07/13 01:52:36;;;;;;;2.03;1.83;;;18.80;99.90;;;;;;5011293;28;20025;-75
2022/07/13 01:55:06;;;;;;;2.22;1.90;;;18.70;99.90;;;;;;5011839;28;20033;-75
2022/07/13 01:57:32;;;;;;;2.22;1.52;;;18.70;99.90;;;;;;5011523;28;20041;-75
2022/07/13 02:00:19;;;;;;;2.45;1.48;;;18.70;99.90;;;;;;5011092;28;20020;-75
2022/07/13 02:02:46;;;;;;;1.92;1.52;;;18.70;99.90;;;;;;5010954;28;20351;-75
2022/07/13 02:05:13;;;;;;;2.70;1.80;;;18.70;99.90;;;;;;5011324;28;20075;-76
2022/07/13 02:07:40;;;;;;;2.55;2.08;;;18.70;99.90;;;;;;5011059;28;20052;-75
2022/07/13 02:10:07;;;;;;;2.22;1.90;;;18.60;99.90;;;;;;5010879;28;20517;-75
2022/07/13 02:12:33;;;;;;;2.35;1.67;;;18.60;99.90;;;;;;5011024;28;20495;-75
2022/07/13 02:14:59;;;;;;;2.72;1.90;;;18.60;99.90;;;;;;5029606;23;20160;-85
2022/07/13 02:17:26;;;;;;;3.20;1.48;;;18.60;99.90;;;;;;5012466;28;20033;-85
2022/07/13 02:19:52;;;;;;;2.00;1.80;;;18.50;99.90;;;;;;5012166;28;20490;-84
2022/07/13 02:22:18;;;;;;;2.65;1.90;;;18.50;99.90;;;;;;5013524;28;20022;-84
2022/07/13 02:24:44;;;;;;;1.67;1.58;;;18.50;99.90;;;;;;5012996;28;20078;-84
2022/07/13 02:27:10;;;;;;;1.88;1.77;;;18.50;99.90;;;;;;5011939;28;20068;-84
2022/07/13 02:29:36;;;;;;;2.55;2.03;;;18.50;99.90;;;;;;5011823;28;20445;-84
2022/07/13 02:32:02;;;;;;;1.70;1.60;;;18.50;99.90;;;;;;5011679;28;20026;-84
2022/07/13 02:34:28;;;;;;;3.40;1.60;;;18.50;99.90;;;;;;5011761;28;20018;-84
2022/07/13 02:36:58;;;;;;;5.53;1.80;;;18.50;99.90;;;;;;5011516;28;20017;-84
2022/07/13 02:39:25;;;;;;;3.78;1.73;;;18.50;99.90;;;;;;5011755;28;20028;-84
2022/07/13 02:41:51;;;;;;;4.07;2.15;;;18.50;99.90;;;;;;5011530;28;20029;-84
2022/07/13 02:44:17;;;;;;;2.83;1.77;;;18.40;99.90;;;;;;5010696;28;20022;-84
2022/07/13 02:46:43;;;;;;;1.75;1.65;;;18.40;99.90;;;;;;5011059;28;20014;-84
2022/07/13 02:49:09;;;;;;;2.97;2.17;;;18.40;99.90;;;;;;5011603;28;20030;-84
2022/07/13 02:51:35;;;;;;;9.15;2.28;;;18.40;99.90;;;;;;5009679;28;20033;-84
2022/07/13 02:54:01;;;;;;;2.17;1.95;;;18.50;99.90;;;;;;5017871;28;20502;-84
2022/07/13 02:56:27;;;;;;;3.42;1.70;;;18.40;99.90;;;;;;5009909;28;20398;-84
2022/07/13 02:58:53;;;;;;;1.95;1.80;;;18.40;99.90;;;;;;5011342;28;20534;-84
2022/07/13 03:01:19;;;;;;;2.10;1.92;;;18.40;99.90;;;;;;5003716;28;20014;-84
2022/07/13 03:03:44;;;;;;;2.30;2.10;;;18.40;99.90;;;;;;5010793;28;20029;-85
2022/07/13 03:06:10;;;;;;;3.75;1.88;;;18.40;99.90;;;;;;5011122;28;20057;-84
2022/07/13 03:08:36;;;;;;;3.72;2.28;;;18.40;99.90;;;;;;5011342;28;20033;-84
2022/07/13 03:11:02;;;;;;;2.22;1.90;;;18.40;99.90;;;;;;5011350;28;20092;-84
2022/07/13 03:13:27;;;;;;;2.17;1.77;;;18.40;99.90;;;;;;5011204;28;20075;-84
2022/07/13 03:15:53;;;;;;;2.72;2.20;;;18.30;99.90;;;;;;5034081;23;20073;-75
2022/07/13 03:18:19;;;;;;;2.28;1.80;;;18.30;99.90;;;;;;5031049;28;20041;-75
2022/07/13 03:20:44;;;;;;;2.35;1.73;;;18.30;99.90;;;;;;5030883;28;20096;-75
2022/07/13 03:23:10;;;;;;;3.28;1.98;;;18.20;99.90;;;;;;5030761;28;20025;-75
2022/07/13 03:25:36;;;;;;;2.92;1.88;;;18.30;99.90;;;;;;5028950;28;20021;-75
2022/07/13 03:28:02;;;;;;;2.65;1.90;;;18.20;99.90;;;;;;5029580;28;20467;-75
2022/07/13 03:30:28;;;;;;;2.03;1.80;;;18.20;99.90;;;;;;5029634;28;20022;-76
2022/07/13 03:32:54;;;;;;;2.92;1.63;;;18.20;99.90;;;;;;5029146;28;20025;-75
2022/07/13 03:35:20;;;;;;;1.90;1.80;;;18.10;99.90;;;;;;5029499;28;20018;-75
2022/07/13 03:37:45;;;;;;;3.42;2.30;;;18.10;99.90;;;;;;5029735;28;20525;-75
2022/07/13 03:40:11;;;;;;;3.03;2.08;;;18.00;99.90;;;;;;5029556;28;20029;-75
2022/07/13 03:42:38;;;;;;;2.10;1.90;;;18.00;99.90;;;;;;5029519;28;20022;-75
2022/07/13 03:45:05;;;;;;;5.82;2.15;;;17.90;99.90;;;;;;5028161;28;20021;-75
2022/07/13 03:47:30;;;;;;;3.47;1.98;;;18.00;99.90;;;;;;5029318;28;20022;-75
2022/07/13 03:49:56;;;;;;;2.30;2.10;;;17.90;99.90;;;;;;5029548;28;20025;-75
2022/07/13 03:52:22;;;;;;;2.55;1.80;;;18.00;99.90;;;;;;5030158;28;20367;-75
2022/07/13 03:54:48;;;;;;;2.55;1.95;;;17.90;99.90;;;;;;5029634;28;20549;-75
2022/07/13 03:57:13;;;;;;;1.90;1.80;;;17.90;99.90;;;;;;5029016;28;20033;-75
2022/07/13 03:59:39;;;;;;;2.15;1.92;;;17.90;99.90;;;;;;5029485;28;20029;-75
2022/07/13 04:02:05;;;;;;;2.60;1.67;;;17.90;99.90;;;;;;5029693;28;20016;-75
2022/07/13 04:04:31;;;;;;;2.10;1.85;;;17.80;99.90;;;;;;5031746;28;20537;-75
2022/07/13 04:06:56;;;;;;;3.15;2.10;;;17.80;99.90;;;;;;5033138;28;20017;-75
2022/07/13 04:09:22;;;;;;;4.13;1.90;;;17.70;99.90;;;;;;5031646;28;20029;-75
2022/07/13 04:11:48;;;;;;;2.35;1.90;;;17.70;99.90;;;;;;5032778;28;20104;-75
2022/07/13 04:14:14;;;;;;;1.98;1.88;;;17.70;99.90;;;;;;5033379;28;20099;-75
2022/07/13 04:16:40;;;;;;;2.08;1.88;;;17.60;99.90;;;;;;5040514;22;20433;-84
2022/07/13 04:19:06;;;;;;;1.92;1.70;;;17.60;99.90;;;;;;5014059;28;20044;-83
2022/07/13 04:21:32;;;;;;;3.85;1.77;;;17.60;99.90;;;;;;5014188;28;20029;-83
2022/07/13 04:23:58;;;;;;;3.17;2.90;;;17.60;99.90;;;;;;5014101;28;20021;-83
2022/07/13 04:26:24;;;;;;;2.60;2.08;;;17.60;99.90;;;;;;5012423;28;20021;-84
2022/07/13 04:28:49;;;;;;;3.05;2.00;;;17.60;99.90;;;;;;5012885;28;20080;-83
2022/07/13 04:31:15;;;;;;;2.08;1.70;;;17.60;99.90;;;;;;5012163;28;20018;-83
2022/07/13 04:33:41;;;;;;;4.22;2.72;;;17.60;99.90;;;;;;5012266;28;20018;-83
2022/07/13 04:36:07;;;;;;;4.28;2.40;;;17.60;99.90;;;;;;5012845;28;20036;-83
2022/07/13 04:38:34;;;;;;;2.42;2.22;;;17.60;99.90;;;;;;5012510;28;20605;-83
2022/07/13 04:41:00;;;;;;;3.85;2.67;;;17.50;99.90;;;;;;5012141;28;20479;-83
2022/07/13 04:43:26;;;;;;;2.75;2.22;;;17.60;99.90;;;;;;5012519;28;20025;-84
2022/07/13 04:45:52;;;;;;;3.60;2.15;;;17.60;99.90;;;;;;5010595;28;20018;-83
2022/07/13 04:48:18;;;;;;;2.50;2.20;;;17.70;99.90;;;;;;5011759;28;20010;-83
2022/07/13 04:50:44;;;;;;;3.65;2.80;;;17.70;99.90;;;;;;5011893;28;20046;-83
2022/07/13 04:53:10;;;;;;;2.20;2.00;;;17.70;99.90;;;;;;5011782;28;20072;-83
2022/07/13 04:55:38;;;;;;;2.67;2.22;;;17.70;99.90;;;;;;5011717;28;20737;-83
2022/07/13 04:58:05;;;;;;;6.70;2.40;;;17.90;99.90;;;;;;5011730;28;20453;-84
2022/07/13 05:00:31;;;;;;;2.95;2.55;;;18.00;99.90;;;;;;5010535;28;20482;-83
2022/07/13 05:02:57;;;;;;;4.05;2.13;;;18.00;99.90;;;;;;5011909;28;20101;-83
2022/07/13 05:05:23;;;;;;;2.60;2.40;;;18.20;99.90;;;;;;5010296;28;20056;-84
2022/07/13 05:07:48;;;;;;;2.88;2.67;;;18.20;99.90;;;;;;5012244;28;20079;-83
2022/07/13 05:10:14;;;;;;;3.22;2.53;;;18.20;99.90;;;;;;5011692;28;20101;-83
2022/07/13 05:12:41;;;;;;;2.42;2.20;;;18.20;99.90;;;;;;5011720;28;20032;-83
2022/07/13 05:15:11;;;;;;;5.35;2.42;;;18.30;99.90;;;;;;5021000;23;20537;-75
2022/07/13 05:17:38;;;;;;;3.30;2.30;;;18.40;99.90;;;;;;4993505;28;20018;-75
2022/07/13 05:20:04;;;;;;;2.45;2.25;;;18.40;99.90;;;;;;4993557;28;20030;-75
2022/07/13 05:22:30;;;;;;;3.13;2.60;;;18.40;99.90;;;;;;4993229;28;20081;-75
2022/07/13 05:24:56;;;;;;;3.55;2.50;;;18.40;99.90;;;;;;4993349;28;20030;-75
2022/07/13 05:27:23;;;;;;;4.95;2.10;;;18.40;99.90;;;;;;4993399;28;20025;-75
2022/07/13 05:29:50;;;;;;;3.53;2.35;;;18.40;99.90;;;;;;4993395;28;20450;-75
2022/07/13 05:32:16;;;;;;;3.72;2.60;;;18.50;99.90;;;;;;4999901;28;20027;-75
2022/07/13 05:34:42;;;;;;;4.85;2.53;;;18.50;99.90;;;;;;4993261;28;20058;-75
2022/07/13 05:37:07;;;;;;;6.93;2.85;;;18.60;99.90;;;;;;4992593;28;20057;-75
2022/07/13 05:39:33;;;;;;;4.57;2.40;;;18.70;99.90;;;;;;4986223;28;20027;-75
2022/07/13 05:41:59;;;;;;;3.63;2.83;;;18.90;99.90;;;;;;4993196;28;20544;-75
2022/07/13 05:44:25;;;;;;;4.40;2.50;;;18.90;99.90;;;;;;4992218;28;20018;-75
2022/07/13 05:46:50;;;;;;;2.50;2.30;;;18.90;99.90;;;;;;4993188;28;20383;-75
2022/07/13 05:49:16;;;;;;;3.00;2.47;;;19.10;99.90;;;;;;4991825;28;20113;-75
2022/07/13 05:51:42;;;;;;;5.53;2.78;;;19.10;99.90;;;;;;4993034;28;20069;-75
2022/07/13 05:54:08;;;;;;;2.58;2.35;;;19.20;99.90;;;;;;4992808;28;20022;-75
2022/07/13 05:56:34;;;;;;;2.95;2.50;;;19.40;99.90;;;;;;4992738;28;20181;-76
2022/07/13 05:59:00;;;;;;;4.10;2.25;;;19.50;99.90;;;;;;4992505;28;20534;-76
2022/07/13 06:01:26;;;;;;;2.50;2.30;;;19.60;99.90;;;;;;4992515;28;20026;-76
2022/07/13 06:03:52;;;;;;;3.38;2.60;;;19.70;99.90;;;;;;4992839;28;20025;-76
2022/07/13 06:06:18;;;;;;;5.05;3.00;;;19.80;99.90;;;;;;4992881;28;20022;-75
2022/07/13 06:08:43;;;;;;;5.38;2.75;;;19.90;99.90;;;;;;4992619;28;20034;-75
2022/07/13 06:11:09;;;;;;;5.38;2.88;;;20.10;99.90;;;;;;4992613;28;20356;-75
2022/07/13 06:13:35;;;;;;;3.38;2.35;;;20.20;99.90;;;;;;4992564;28;20033;-76
2022/07/13 06:16:01;;;;;;;2.30;2.00;;;20.30;99.90;;;;;;5010356;23;20046;-83
2022/07/13 06:18:27;;;;;;;2.80;2.10;;;20.50;99.90;;;;;;4990464;28;20391;-83
2022/07/13 06:20:53;;;;;;;3.85;2.50;;;20.50;99.90;;;;;;4990422;28;20058;-83
2022/07/13 06:23:20;;;;;;;2.50;2.20;;;20.60;99.90;;;;;;4991142;28;20057;-83
2022/07/13 06:25:46;;;;;;;2.30;1.70;;;20.80;99.90;;;;;;5000823;28;20029;-82
2022/07/13 06:28:13;;;;;;;2.95;1.90;;;21.00;99.90;;;;;;5010236;28;20080;-82
2022/07/13 06:30:39;;;;;;;5.82;2.50;;;21.10;99.90;;;;;;5010541;28;20474;-82
2022/07/13 06:33:05;;;;;;;2.10;1.90;;;21.20;99.90;;;;;;5010454;28;20405;-82
2022/07/13 06:35:31;;;;;;;4.18;2.40;;;21.40;99.90;;;;;;5010286;28;20573;-82
2022/07/13 06:37:58;;;;;;;2.90;2.47;;;21.50;99.90;;;;;;5010657;28;20030;-82
2022/07/13 06:40:24;;;;;;;3.58;2.90;;;21.60;99.90;;;;;;5010277;28;20020;-82
2022/07/13 06:42:50;;;;;;;3.92;2.83;;;21.60;99.90;;;;;;5010492;28;20037;-83
2022/07/13 06:45:16;;;;;;;3.45;2.42;;;21.70;99.90;;;;;;5009300;28;20018;-81
2022/07/13 06:47:42;;;;;;;4.70;2.72;;;21.80;99.90;;;;;;5010557;28;20025;-82
2022/07/13 06:50:09;;;;;;;4.10;2.47;;;21.90;99.90;;;;;;5010288;28;20026;-83
2022/07/13 06:52:37;;;;;;;5.57;2.38;;;22.00;99.90;;;;;;5010520;28;20040;-82
2022/07/13 06:55:04;;;;;;;4.25;2.13;;;22.10;99.90;;;;;;5003939;28;20026;-82
2022/07/13 06:57:30;;;;;;;3.22;2.67;;;22.40;99.90;;;;;;5009408;28;20080;-83
2022/07/13 06:59:56;;;;;;;4.55;2.08;;;22.60;99.90;;;;;;5009386;28;20028;-82
2022/07/13 07:02:22;;;;;;;3.72;1.85;;;22.80;99.90;;;;;;5009555;28;20014;-82
2022/07/13 07:04:48;;;;;;;4.28;2.30;;;23.00;99.90;;;;;;5008634;28;20117;-82
2022/07/13 07:07:13;;;;;;;3.28;2.00;;;23.10;99.90;;;;;;5009457;28;20041;-82
2022/07/13 07:09:39;;;;;;;3.20;2.10;;;23.30;99.90;;;;;;5009942;28;20025;-78
2022/07/13 07:12:05;;;;;;;4.00;1.88;;;23.50;99.90;;;;;;5008227;28;20118;-84
2022/07/13 07:17:09;;;;;;;3.75;1.90;;;23.70;99.90;;;;;;5065674;28;20040;-76
2022/07/13 07:19:35;;;;;;;2.20;2.00;;;23.80;99.90;;;;;;5070237;28;20028;-76
2022/07/13 07:22:01;;;;;;;4.28;2.40;;;23.90;99.90;;;;;;5070460;28;20035;-76
2022/07/13 07:24:27;;;;;;;1.73;1.60;;;23.90;99.90;;;;;;5070418;28;20112;-76
2022/07/13 07:26:53;;;;;;;2.50;1.70;;;24.00;99.90;;;;;;5049744;28;20377;-76
2022/07/13 07:29:18;;;;;;;3.42;2.22;;;24.20;99.90;;;;;;5049715;28;20025;-76
2022/07/13 07:31:44;;;;;;;3.45;2.03;;;24.30;99.90;;;;;;5049987;28;20029;-76
2022/07/13 07:34:10;;;;;;;2.53;1.85;;;24.50;99.90;;;;;;5050169;28;20020;-76
2022/07/13 07:36:35;;;;;;;2.08;1.88;;;24.70;99.90;;;;;;5051107;28;20063;-76
2022/07/13 07:39:01;;;;;;;4.55;1.63;;;24.90;99.90;;;;;;5054151;28;20045;-76
2022/07/13 07:41:27;;;;;;;2.78;1.80;;;25.10;99.90;;;;;;5053019;28;20033;-76
2022/07/13 07:43:53;;;;;;;3.15;1.73;;;25.50;99.90;;;;;;5054263;28;20727;-76
2022/07/13 07:46:18;;;;;;;4.25;1.92;;;25.70;99.90;;;;;;5051940;28;20014;-75
2022/07/13 07:48:44;;;;;;;2.25;1.60;;;25.70;99.90;;;;;;5036422;28;20813;-75
2022/07/13 07:51:10;;;;;;;2.83;1.80;;;25.80;99.90;;;;;;5054691;28;20021;-75
2022/07/13 07:53:36;;;;;;;2.08;1.65;;;26.10;99.90;;;;;;5054431;28;20070;-75
2022/07/13 07:56:01;;;;;;;2.35;1.40;;;26.30;96.40;;;;;;5054402;28;20108;-75
2022/07/13 07:58:27;;;;;;;2.72;1.25;;;26.60;99.90;;;;;;5054408;28;20039;-75
2022/07/13 08:00:53;;;;;;;2.55;1.33;;;26.80;86.60;;;;;;5054204;28;20358;-75
2022/07/13 08:03:19;;;;;;;1.27;1.00;;;27.00;86.10;;;;;;5054508;28;20025;-75
2022/07/13 08:05:48;;;;;;;1.42;1.33;;;27.10;86.50;;;;;;5054411;28;20021;-75
2022/07/13 08:08:14;;;;;;;1.65;1.20;;;27.30;77.50;;;;;;5054419;28;20013;-75
2022/07/13 08:10:40;;;;;;;1.90;1.45;;;27.40;73.00;;;;;;5054168;28;20043;-75
2022/07/13 08:13:05;;;;;;;1.63;1.20;;;27.30;73.20;;;;;;5054402;28;20028;-75
2022/07/13 08:15:32;;;;;;;1.83;1.45;;;27.30;76.90;;;;;;5079239;22;20094;-82
2022/07/13 08:17:58;;;;;;;4.53;1.10;;;27.30;72.30;;;;;;5073714;28;20464;-82
2022/07/13 08:20:24;;;;;;;1.60;1.17;;;27.50;71.10;;;;;;5074241;28;20020;-83
2022/07/13 08:22:50;;;;;;;2.90;1.10;;;27.70;74.80;;;;;;5073549;28;20021;-82
2022/07/13 08:25:16;;;;;;;1.30;1.17;;;27.80;67.10;;;;;;5067562;28;20462;-83
2022/07/13 08:27:42;;;;;;;2.38;1.02;;;27.90;68.30;;;;;;5053898;28;20017;-82
2022/07/13 08:30:10;;;;;;;0.88;0.80;;;27.60;65.90;;;;;;5053732;28;20033;-82
2022/07/13 08:32:36;;;;;;;1.98;1.25;;;27.50;68.40;;;;;;5053540;28;20017;-83
2022/07/13 08:40:31;;;;;;;2.05;1.02;;;27.70;72.00;;;;;;5046603;28;20086;-83
2022/07/13 08:42:56;;;;;;;1.50;1.00;;;28.10;71.30;;;;;;5053785;28;20033;-82
2022/07/13 08:45:24;;;;;;;1.08;0.85;;;28.60;65.70;;;;;;5052515;28;20020;-83
2022/07/13 08:47:49;;;;;;;0.95;0.93;;;29.30;65.30;;;;;;5053274;28;20055;-83
2022/07/13 08:50:17;;;;;;;1.08;0.95;;;30.10;60.70;;;;;;5052975;28;20064;-83
2022/07/13 08:52:43;;;;;;;1.35;0.80;;;31.00;57.10;;;;;;5053462;28;20026;-83
2022/07/13 08:55:09;;;;;;;1.15;0.90;;;32.00;53.10;;;;;;5053253;28;20027;-84
2022/07/13 08:57:39;;;;;;;1.00;0.88;;;32.20;54.50;;;;;;5053356;28;20037;-83
2022/07/13 09:00:12;;;;;;;1.08;0.98;;;32.40;51.50;;;;;;5053155;28;20059;-84
2022/07/13 09:02:39;;;;;;;2.25;0.98;;;32.70;48.20;;;;;;5053083;28;20025;-83
2022/07/13 09:05:06;;;;;;;2.75;1.10;;;32.50;49.90;;;;;;5053201;28;20491;-83
2022/07/13 09:07:34;;;;;;;1.02;0.93;;;32.90;47.40;;;;;;5052813;28;20100;-83
2022/07/13 09:10:02;;;;;;;1.15;0.90;;;33.30;49.10;;;;;;5053001;28;20021;-83
2022/07/13 09:12:28;;;;;;;1.55;0.75;;;32.90;47.90;;;;;;5053044;28;20112;-83
2022/07/13 09:14:56;;;;;;;2.88;0.75;;;32.60;49.30;;;;;;5053011;22;20025;-75
2022/07/13 09:17:27;;;;;;;0.55;0.55;;;32.70;50.10;;;;;;5039236;28;20041;-75
2022/07/13 09:19:53;;;;;;;1.08;0.80;;;33.00;50.40;;;;;;5053022;28;20544;-74
2022/07/13 09:22:19;;;;;;;1.33;0.95;;;33.10;44.60;;;;;;5052607;28;20108;-75
2022/07/13 09:24:47;;;;;;;2.70;0.88;;;32.80;43.80;;;;;;5051942;28;20469;-75
2022/07/13 09:27:14;;;;;;;0.63;0.63;;;32.50;44.10;;;;;;5032783;28;20036;-75
2022/07/13 09:29:40;;;;;;;0.73;0.73;;;32.20;46.60;;;;;;5032942;28;20028;-75
2022/07/13 09:32:08;;;;;;;3.45;0.70;;;32.10;46.40;;;;;;5032759;28;20013;-75
2022/07/13 09:34:54;;;;;;;1.60;0.63;;;32.10;46.20;;;;;;5032405;28;20482;-75
2022/07/13 09:37:26;;;;;;;2.65;0.90;;;32.20;45.50;;;;;;5014961;28;20044;-75
2022/07/13 09:40:09;;;;;;;2.70;0.57;;;32.70;50.50;;;;;;5032945;28;20041;-75
2022/07/13 09:42:38;;;;;;;2.33;0.82;;;33.00;47.20;;;;;;5027783;28;20449;-75
2022/07/13 09:47:53;;;;;;;1.13;0.95;;;32.90;44.70;;;;;;5032683;28;20519;-75
2022/07/13 09:50:36;;;;;;;1.08;0.75;;;33.20;44.70;;;;;;5032615;28;20013;-75
2022/07/13 09:53:22;;;;;;;3.35;0.85;;;33.10;44.90;;;;;;5032285;28;20020;-75
2022/07/13 09:55:50;;;;;;;1.15;0.77;;;33.10;46.20;;;;;;5032319;28;20017;-75
2022/07/13 09:58:23;;;;;;;0.95;0.85;;;33.10;46.20;;;;;;5031908;28;20025;-75
2022/07/13 10:00:51;;;;;;;0.80;0.80;;;33.20;44.90;;;;;;5031745;28;20030;-75
2022/07/13 10:03:18;;;;;;;0.90;0.73;;;33.20;46.80;;;;;;5031815;28;20018;-75
2022/07/13 10:05:44;;;;;;;1.70;0.93;;;33.10;45.20;;;;;;5032015;28;20097;-75
2022/07/13 10:08:10;;;;;;;1.38;0.80;;;32.70;45.60;;;;;;5032070;28;20084;-75
2022/07/13 10:10:37;;;;;;;1.95;0.90;;;33.20;46.20;;;;;;5032022;28;20509;-75
2022/07/13 10:13:05;;;;;;;1.38;1.00;;;33.10;44.90;;;;;;5031920;28;20063;-75
2022/07/13 10:15:31;;;;;;;3.92;0.93;;;33.50;43.40;;;;;;5055191;22;20136;-83
2022/07/13 10:18:00;;;;;;;1.52;0.80;;;34.00;46.10;;;;;;5037062;28;20116;-84
2022/07/13 10:20:27;;;;;;;1.80;0.88;;;34.30;44.50;;;;;;5027487;28;20030;-83
2022/07/13 10:22:53;;;;;;;1.27;1.10;;;34.90;43.40;;;;;;5029574;28;20021;-84
2022/07/13 10:25:23;;;;;;;2.90;1.10;;;35.20;45.20;;;;;;5031458;28;20025;-84
2022/07/13 10:28:05;;;;;;;1.60;0.93;;;35.70;43.40;;;;;;5024548;28;20026;-84
2022/07/13 10:30:32;;;;;;;3.28;1.00;;;37.00;40.90;;;;;;5018099;28;20132;-84
2022/07/13 10:33:18;;;;;;;1.25;1.10;;;38.30;40.40;;;;;;5030093;28;20108;-84
2022/07/13 10:35:49;;;;;;;0.85;0.60;;;38.80;37.80;;;;;;5030414;28;20021;-84
2022/07/13 10:38:19;;;;;;;0.60;0.60;;;40.10;34.70;;;;;;5030455;28;20029;-85
2022/07/13 10:40:46;;;;;;;2.05;0.90;;;41.00;35.30;;;;;;5012930;28;20022;-84
2022/07/13 10:43:14;;;;;;;2.67;0.90;;;41.30;33.10;;;;;;5030716;28;20040;-85
2022/07/13 10:45:43;;;;;;;0.73;0.70;;;41.30;34.50;;;;;;5029053;28;20013;-85
2022/07/13 10:48:24;;;;;;;1.08;0.77;;;40.50;34.00;;;;;;5030051;28;20374;-85
2022/07/13 10:50:58;;;;;;;0.85;0.70;;;40.20;35.60;;;;;;5012808;28;20115;-85
2022/07/13 10:53:39;;;;;;;1.77;0.82;;;40.50;35.90;;;;;;5030826;28;20013;-85
2022/07/13 10:56:17;;;;;;;1.50;0.80;;;39.90;35.30;;;;;;5019163;28;20021;-84
2022/07/13 10:58:44;;;;;;;2.63;0.80;;;40.40;36.30;;;;;;5023549;28;20033;-84
2022/07/13 11:01:28;;;;;;;1.80;0.90;;;39.90;36.10;;;;;;5030294;28;20481;-84
2022/07/13 11:03:54;;;;;;;2.42;1.00;;;39.10;36.40;;;;;;5030041;28;20030;-84
2022/07/13 11:06:24;;;;;;;0.98;0.73;;;39.20;37.00;;;;;;5029962;28;20021;-84
2022/07/13 11:09:20;;;;;;;1.95;1.00;;;39.40;35.00;;;;;;5030155;28;20032;-84
2022/07/13 11:11:48;;;;;;;0.75;0.70;;;39.60;37.90;;;;;;5021806;28;20037;-85
2022/07/13 11:17:23;;;;;;;2.50;0.90;;;39.40;34.80;;;;;;5041069;28;20179;-76
2022/07/13 11:19:52;;;;;;;1.48;0.70;;;38.70;34.60;;;;;;5017594;28;20418;-75
2022/07/13 11:22:22;;;;;;;2.42;1.00;;;38.00;35.90;;;;;;5049430;28;20025;-75
2022/07/13 11:25:14;;;;;;;3.92;0.85;;;37.20;37.30;;;;;;5034927;28;20481;-75
2022/07/13 11:28:11;;;;;;;1.70;1.10;;;36.60;38.40;;;;;;5034049;28;20063;-75
2022/07/13 11:30:39;;;;;;;1.05;1.00;;;36.50;37.80;;;;;;5028774;28;20038;-74
2022/07/13 11:33:11;;;;;;;2.28;0.90;;;36.30;40.30;;;;;;5033669;28;20022;-75
2022/07/13 11:35:37;;;;;;;1.10;0.90;;;35.80;39.50;;;;;;5033829;28;20029;-74
2022/07/13 11:38:03;;;;;;;2.15;1.20;;;36.00;39.30;;;;;;5034246;28;20029;-75
2022/07/13 11:40:33;;;;;;;2.38;1.20;;;36.30;39.10;;;;;;5015889;28;20029;-74
2022/07/13 11:43:00;;;;;;;1.98;1.15;;;36.40;37.70;;;;;;5033734;28;20029;-74
2022/07/13 11:45:30;;;;;;;2.60;1.10;;;37.90;39.90;;;;;;5032363;28;20029;-75
2022/07/13 11:48:02;;;;;;;2.35;1.08;;;39.30;35.60;;;;;;5033645;28;20580;-75
2022/07/13 11:50:50;;;;;;;2.97;1.13;;;40.50;35.10;;;;;;5033442;28;20021;-75
2022/07/13 11:53:23;;;;;;;1.58;0.98;;;41.10;33.70;;;;;;5027258;28;20458;-75
2022/07/13 11:55:49;;;;;;;2.53;1.10;;;40.10;33.90;;;;;;5033366;28;20029;-74
2022/07/13 11:58:27;;;;;;;0.70;0.70;;;39.90;35.50;;;;;;5033252;28;20044;-75
2022/07/13 12:00:53;;;;;;;3.60;0.90;;;39.70;34.40;;;;;;5033180;28;20086;-74
2022/07/13 12:03:29;;;;;;;2.08;0.90;;;39.40;36.60;;;;;;5033323;28;20412;-75
2022/07/13 12:06:03;;;;;;;1.80;1.00;;;39.20;34.90;;;;;;5033087;28;20384;-75
2022/07/13 12:08:31;;;;;;;2.30;1.00;;;37.90;35.20;;;;;;5033203;28;20116;-75
2022/07/13 12:10:57;;;;;;;2.45;0.90;;;37.60;36.10;;;;;;5032768;28;20104;-74
2022/07/13 12:13:23;;;;;;;2.70;1.05;;;37.80;37.60;;;;;;5015375;28;20164;-75
2022/07/13 12:15:48;;;;;;;3.22;0.88;;;38.50;36.60;;;;;;5057641;22;20611;-85
2022/07/13 12:18:14;;;;;;;0.60;0.60;;;39.40;35.50;;;;;;5019615;28;20022;-85
2022/07/13 12:20:40;;;;;;;1.55;0.60;;;39.40;33.80;;;;;;5034367;28;20030;-84
2022/07/13 12:23:07;;;;;;;0.60;0.47;;;38.50;34.70;;;;;;5033081;28;20029;-84
2022/07/13 12:25:37;;;;;;;0.50;0.50;;;38.10;35.60;;;;;;5033160;28;20018;-85
2022/07/13 12:28:04;;;;;;;;;;;39.30;34.50;;;;;;5033650;28;20021;-84
2022/07/13 12:30:31;;;;;;;2.92;0.70;;;40.10;32.90;;;;;;5033033;28;19967;-85
2022/07/13 12:33:01;;;;;;;0.57;0.40;;;39.70;32.20;;;;;;5032553;28;20025;-85
2022/07/13 12:35:37;;;;;;;1.02;1.00;;;39.50;33.60;;;;;;5032449;28;20021;-84
2022/07/13 12:38:08;;;;;;;1.73;0.70;;;39.00;34.90;;;;;;5032932;28;20124;-85
2022/07/13 12:40:42;;;;;;;0.88;0.88;;;38.40;34.00;;;;;;5019698;28;20132;-84
2022/07/13 12:43:20;;;;;;;2.17;0.95;;;38.20;36.30;;;;;;5032813;28;20079;-85
2022/07/13 12:45:53;;;;;;;3.33;1.00;;;37.60;35.10;;;;;;5030963;28;20025;-85
2022/07/13 12:48:23;;;;;;;1.80;0.98;;;37.20;37.70;;;;;;5032033;28;20544;-85
2022/07/13 12:51:02;;;;;;;1.00;0.90;;;36.60;36.70;;;;;;5032096;28;20017;-85
2022/07/13 12:53:49;;;;;;;1.77;1.02;;;36.10;36.90;;;;;;5022246;28;20454;-85
2022/07/13 12:56:16;;;;;;;1.38;0.70;;;35.60;38.00;;;;;;5022758;28;20068;-84
2022/07/13 12:58:50;;;;;;;1.45;0.90;;;35.20;37.00;;;;;;5032150;28;20033;-83
2022/07/13 13:01:35;;;;;;;1.58;0.85;;;35.20;38.80;;;;;;5014103;28;20017;-82
2022/07/13 13:04:03;;;;;;;2.90;1.05;;;35.60;38.30;;;;;;5032161;28;20025;-85
2022/07/13 13:06:30;;;;;;;3.45;1.10;;;35.30;37.30;;;;;;5031916;28;20054;-83